Time;durP1;ratioP1;P1;durP2;ratioP2;P2;SDS_P1;SDS_P2;PMS_P1;PMS_P2;Temp;Humidity;BMP_temperature;BMP_pressure;BME280_temperature;BME280_humidity;BME280_pressure;Samples;Min_cycle;Max_cycle;Signal;HPM_P1;HPM_P2
2022/03/24 00:00:08;;;;;;;;;;;8.80;99.90;;;;;;5033808;28;19921;-78
2022/03/24 00:02:33;;;;;;;;;;;8.70;99.90;;;;;;5034636;28;19921;-77
2022/03/24 00:04:59;;;;;;;;;;;8.70;99.90;;;;;;5033885;28;19928;-77
2022/03/24 00:07:24;;;;;;;;;;;8.70;99.90;;;;;;5034496;28;19921;-77
2022/03/24 00:09:50;;;;;;;;;;;8.70;99.90;;;;;;5034432;28;20430;-77
2022/03/24 00:12:16;;;;;;;;;;;8.60;99.90;;;;;;5034422;28;20297;-78
2022/03/24 00:14:42;;;;;;;;;;;8.60;99.90;;;;;;5033369;28;19925;-77
2022/03/24 00:17:08;;;;;;;;;;;8.60;99.90;;;;;;5034416;28;19928;-77
2022/03/24 00:19:34;;;;;;;;;;;8.60;99.90;;;;;;5033819;28;19921;-77
2022/03/24 00:22:00;;;;;;;;;;;8.60;99.90;;;;;;5035354;28;20274;-77
2022/03/24 00:24:26;;;;;;;;;;;8.50;99.90;;;;;;5033894;28;20385;-78
2022/03/24 00:26:51;;;;;;;;;;;8.50;99.90;;;;;;5034253;28;19932;-76
2022/03/24 00:29:17;;;;;;;;;;;8.40;99.90;;;;;;5034130;28;19928;-77
2022/03/24 00:31:42;;;;;;;;;;;8.50;99.90;;;;;;5034023;28;20377;-76
2022/03/24 00:34:09;;;;;;;;;;;8.40;99.90;;;;;;5033799;28;19976;-77
2022/03/24 00:36:35;;;;;;;;;;;8.40;99.90;;;;;;5017084;28;20023;-77
2022/03/24 00:39:01;;;;;;;;;;;8.40;99.90;;;;;;5034319;28;19992;-77
2022/03/24 00:41:28;;;;;;;;;;;8.40;99.90;;;;;;5000620;28;20309;-77
2022/03/24 00:43:55;;;;;;;;;;;8.40;99.90;;;;;;5033989;28;19928;-76
2022/03/24 00:46:23;;;;;;;;;;;8.40;99.90;;;;;;5033405;28;19936;-77
2022/03/24 00:48:49;;;;;;;;;;;8.40;99.90;;;;;;5034089;28;20358;-77
2022/03/24 00:51:15;;;;;;;;;;;8.40;99.90;;;;;;5033354;28;20325;-78
2022/03/24 00:53:41;;;;;;;;;;;8.40;99.90;;;;;;5033519;28;20004;-77
2022/03/24 00:56:07;;;;;;;;;;;8.40;99.90;;;;;;5034557;28;19933;-81
2022/03/24 00:58:32;;;;;;;;;;;8.30;99.90;;;;;;5032588;28;19921;-77
2022/03/24 01:00:58;;;;;;;;;;;8.20;99.90;;;;;;5033399;28;19920;-77
2022/03/24 01:03:23;;;;;;;;;;;8.20;99.90;;;;;;5032216;28;19928;-77
2022/03/24 01:05:49;;;;;;;;;;;8.20;99.90;;;;;;5033704;28;20012;-77
2022/03/24 01:08:17;;;;;;;;;;;8.20;99.90;;;;;;5032905;28;19920;-77
2022/03/24 01:10:42;;;;;;;;;;;8.20;99.90;;;;;;5033541;28;19925;-77
2022/03/24 01:13:08;;;;;;;;;;;8.20;99.90;;;;;;5033035;28;20342;-82
2022/03/24 01:15:34;;;;;;;;;;;8.20;99.90;;;;;;5033152;28;19921;-77
2022/03/24 01:18:00;;;;;;;;;;;8.20;99.90;;;;;;5039910;28;19921;-77
2022/03/24 01:20:27;;;;;;;;;;;8.10;99.90;;;;;;5036108;28;20373;-77
2022/03/24 01:22:53;;;;;;;;;;;8.10;99.90;;;;;;5053864;28;19921;-77
2022/03/24 01:25:19;;;;;;;;;;;8.10;99.90;;;;;;5036043;28;19970;-77
2022/03/24 01:27:44;;;;;;;;;;;8.10;99.90;;;;;;5036670;28;19928;-77
2022/03/24 01:30:10;;;;;;;;;;;8.00;99.90;;;;;;5035933;28;19921;-77
2022/03/24 01:32:36;;;;;;;;;;;8.00;99.90;;;;;;5053653;28;19932;-77
2022/03/24 01:35:03;;;;;;;;;;;8.00;99.90;;;;;;5019615;28;20288;-77
2022/03/24 01:37:29;;;;;;;;;;;8.00;99.90;;;;;;5036014;28;20399;-77
2022/03/24 01:39:55;;;;;;;;;;;8.00;99.90;;;;;;5035751;28;20397;-77
2022/03/24 01:42:21;;;;;;;;;;;8.00;99.90;;;;;;5035976;28;19921;-77
2022/03/24 01:44:48;;;;;;;;;;;8.00;99.90;;;;;;5035965;28;19930;-77
2022/03/24 01:47:14;;;;;;;;;;;8.00;99.90;;;;;;5003005;28;19924;-77
2022/03/24 01:49:40;;;;;;;;;;;7.90;99.90;;;;;;5019209;28;19927;-76
2022/03/24 01:52:10;;;;;;;;;;;7.90;99.90;;;;;;5052118;28;19924;-76
2022/03/24 01:54:37;;;;;;;;;;;7.90;99.90;;;;;;5019490;28;19967;-78
2022/03/24 01:57:03;;;;;;;;;;;7.90;99.90;;;;;;5019332;28;20008;-76
2022/03/24 01:59:29;;;;;;;;;;;7.90;99.90;;;;;;5019443;28;20385;-77
2022/03/24 02:01:55;;;;;;;;;;;7.80;99.90;;;;;;5035093;28;19935;-77
2022/03/24 02:04:21;;;;;;;;;;;7.80;99.90;;;;;;5035359;28;19924;-78
2022/03/24 02:06:46;;;;;;;;;;;7.80;99.90;;;;;;5033214;28;20278;-77
2022/03/24 02:09:12;;;;;;;;;;;7.80;99.90;;;;;;5053310;28;19924;-77
2022/03/24 02:11:38;;;;;;;;;;;7.80;99.90;;;;;;5052751;28;19921;-77
2022/03/24 02:14:04;;;;;;;;;;;7.70;99.90;;;;;;5035735;28;20372;-77
2022/03/24 02:16:34;;;;;;;;;;;7.80;99.90;;;;;;5034153;28;19920;-77
2022/03/24 02:19:16;;;;;;;;;;;7.70;99.90;;;;;;5035577;28;19943;-77
2022/03/24 02:21:43;;;;;;;;;;;7.70;99.90;;;;;;5017375;28;19925;-77
2022/03/24 02:24:09;;;;;;;;;;;7.60;99.90;;;;;;5035659;28;20292;-77
2022/03/24 02:26:36;;;;;;;;;;;7.60;99.90;;;;;;5035233;28;19926;-76
2022/03/24 02:29:07;;;;;;;;;;;7.60;99.90;;;;;;5035306;28;19920;-77
2022/03/24 02:31:40;;;;;;;;;;;7.60;99.90;;;;;;5033723;28;20281;-76
2022/03/24 02:36:51;;;;;;;;;;;7.60;99.90;;;;;;5035162;28;19921;-77
2022/03/24 02:39:17;;;;;;;;;;;7.60;99.90;;;;;;5034699;28;19929;-79
2022/03/24 02:41:51;;;;;;;;;;;7.60;99.90;;;;;;5034869;28;19928;-77
2022/03/24 02:44:17;;;;;;;;;;;7.60;99.90;;;;;;5052201;28;20034;-79
2022/03/24 02:46:46;;;;;;;;;;;7.60;99.90;;;;;;5035037;28;19921;-77
2022/03/24 02:49:11;;;;;;;;;;;7.50;99.90;;;;;;5019135;28;19921;-76
2022/03/24 02:51:37;;;;;;;;;;;7.50;99.90;;;;;;4998860;28;19932;-76
2022/03/24 02:54:06;;;;;;;;;;;7.40;99.90;;;;;;5023818;28;19970;-77
2022/03/24 02:56:32;;;;;;;;;;;7.30;99.90;;;;;;5034211;28;19928;-76
2022/03/24 02:58:57;;;;;;;;;;;7.40;99.90;;;;;;5035399;28;20003;-77
2022/03/24 03:01:26;;;;;;;;;;;7.30;99.90;;;;;;5034185;28;19928;-76
2022/03/24 03:03:55;;;;;;;;;;;7.20;99.90;;;;;;5052289;28;19921;-76
2022/03/24 03:06:21;;;;;;;;;;;7.30;99.90;;;;;;5034933;28;19951;-76
2022/03/24 03:08:49;;;;;;;;;;;7.30;99.90;;;;;;5018905;28;19943;-77
2022/03/24 03:11:15;;;;;;;;;;;7.20;99.90;;;;;;5052369;28;20282;-77
2022/03/24 03:13:41;;;;;;;;;;;7.10;99.90;;;;;;5034841;28;19927;-77
2022/03/24 03:16:06;;;;;;;;;;;7.10;99.90;;;;;;5035260;28;19928;-77
2022/03/24 03:18:32;;;;;;;;;;;7.10;99.90;;;;;;5034627;28;20392;-76
2022/03/24 03:20:59;;;;;;;;;;;7.00;99.90;;;;;;4988721;28;20332;-76
2022/03/24 03:23:25;;;;;;;;;;;7.00;99.90;;;;;;5015029;28;19960;-77
2022/03/24 03:25:50;;;;;;;;;;;7.00;99.90;;;;;;5034357;28;20021;-76
2022/03/24 03:28:16;;;;;;;;;;;6.90;99.90;;;;;;5038072;28;19925;-77
2022/03/24 03:30:43;;;;;;;;;;;6.90;99.90;;;;;;5038379;28;19982;-77
2022/03/24 03:33:09;;;;;;;;;;;6.90;99.90;;;;;;5038648;28;19942;-77
2022/03/24 03:35:34;;;;;;;;;;;6.80;99.90;;;;;;5055779;28;20008;-76
2022/03/24 03:38:00;;;;;;;;;;;6.80;99.90;;;;;;5022194;28;19927;-77
2022/03/24 03:40:25;;;;;;;;;;;6.80;99.90;;;;;;5038258;28;19925;-76
2022/03/24 03:42:52;;;;;;;;;;;6.90;99.90;;;;;;5018543;28;19956;-76
2022/03/24 03:45:18;;;;;;;;;;;6.80;99.90;;;;;;5026726;28;19921;-76
2022/03/24 03:47:44;;;;;;;;;;;6.80;99.90;;;;;;5037755;28;20372;-77
2022/03/24 03:50:09;;;;;;;;;;;6.80;99.90;;;;;;5056155;28;19942;-77
2022/03/24 03:52:36;;;;;;;;;;;6.70;99.90;;;;;;5054270;28;19931;-76
2022/03/24 03:55:02;;;;;;;;;;;6.80;99.90;;;;;;5021008;28;19924;-77
2022/03/24 03:57:28;;;;;;;;;;;6.70;99.90;;;;;;5038010;28;19927;-77
2022/03/24 03:59:53;;;;;;;;;;;6.60;99.90;;;;;;5038354;28;20444;-76
2022/03/24 04:02:19;;;;;;;;;;;6.60;99.90;;;;;;5021545;28;19925;-77
2022/03/24 04:04:45;;;;;;;;;;;6.60;99.90;;;;;;5055406;28;19921;-77
2022/03/24 04:07:12;;;;;;;;;;;6.70;99.90;;;;;;5038050;28;20273;-77
2022/03/24 04:09:38;;;;;;;;;;;6.70;99.90;;;;;;5021502;28;19920;-77
2022/03/24 04:12:04;;;;;;;;;;;6.70;99.90;;;;;;5037763;28;19920;-77
2022/03/24 04:14:30;;;;;;;;;;;6.70;99.90;;;;;;5021267;28;20034;-77
2022/03/24 04:16:57;;;;;;;;;;;6.70;99.90;;;;;;5001948;28;19940;-76
2022/03/24 04:19:24;;;;;;;;;;;6.70;99.90;;;;;;5031521;28;19928;-77
2022/03/24 04:21:49;;;;;;;;;;;6.60;99.90;;;;;;5020999;28;19921;-76
2022/03/24 04:24:15;;;;;;;;;;;6.60;99.90;;;;;;5037400;28;19921;-77
2022/03/24 04:26:40;;;;;;;;;;;6.60;99.90;;;;;;5037588;28;19921;-77
2022/03/24 04:29:06;;;;;;;;;;;6.60;99.90;;;;;;5020996;28;19964;-79
2022/03/24 04:31:32;;;;;;;;;;;6.50;99.90;;;;;;5037475;28;19921;-77
2022/03/24 04:33:58;;;;;;;;;;;6.50;99.90;;;;;;5021113;28;19920;-77
2022/03/24 04:36:23;;;;;;;;;;;6.50;99.90;;;;;;5020998;28;20037;-77
2022/03/24 04:38:49;;;;;;;;;;;6.50;99.90;;;;;;5020099;28;20022;-76
2022/03/24 04:41:15;;;;;;;;;;;6.50;99.90;;;;;;5055117;28;20002;-76
2022/03/24 04:43:40;;;;;;;;;;;6.50;99.90;;;;;;5036819;28;19937;-77
2022/03/24 04:46:06;;;;;;;;;;;6.50;99.90;;;;;;5054967;28;20045;-77
2022/03/24 04:48:36;;;;;;;;;;;6.40;99.90;;;;;;5004638;28;19921;-77
2022/03/24 04:51:03;;;;;;;;;;;6.40;99.90;;;;;;5036165;28;20263;-76
2022/03/24 04:53:29;;;;;;;;;;;6.40;99.90;;;;;;5037281;28;20479;-82
2022/03/24 04:55:55;;;;;;;;;;;6.30;99.90;;;;;;5020507;28;19996;-76
2022/03/24 04:58:20;;;;;;;;;;;6.30;99.90;;;;;;5037484;28;19927;-76
2022/03/24 05:00:46;;;;;;;;;;;6.00;99.90;;;;;;5036878;28;20015;-77
2022/03/24 05:03:11;;;;;;;;;;;6.00;99.90;;;;;;5037068;28;19924;-77
2022/03/24 05:05:37;;;;;;;;;;;6.00;99.90;;;;;;5035705;28;20340;-77
2022/03/24 05:08:03;;;;;;;;;;;6.00;99.90;;;;;;5037041;28;19928;-77
2022/03/24 05:10:29;;;;;;;;;;;5.90;99.90;;;;;;5036327;28;19946;-77
2022/03/24 05:12:55;;;;;;;;;;;5.80;99.90;;;;;;5036281;28;19925;-77
2022/03/24 05:15:20;;;;;;;;;;;5.80;99.90;;;;;;5019506;28;19927;-76
2022/03/24 05:17:46;;;;;;;;;;;5.70;99.90;;;;;;5036103;28;19925;-76
2022/03/24 05:20:12;;;;;;;;;;;5.70;99.90;;;;;;5056793;28;19979;-76
2022/03/24 05:22:37;;;;;;;;;;;5.70;99.90;;;;;;5054146;28;19928;-77
2022/03/24 05:25:04;;;;;;;;;;;5.90;99.90;;;;;;5020127;28;19921;-76
2022/03/24 05:27:29;;;;;;;;;;;5.80;99.90;;;;;;5036407;28;19921;-76
2022/03/24 05:29:55;;;;;;;;;;;5.80;99.90;;;;;;5019600;28;19927;-76
2022/03/24 05:32:20;;;;;;;;;;;5.90;99.90;;;;;;5036542;28;19928;-77
2022/03/24 05:34:46;;;;;;;;;;;5.80;99.90;;;;;;5036091;28;19924;-77
2022/03/24 05:37:13;;;;;;;;;;;5.80;99.90;;;;;;5019267;28;19920;-78
2022/03/24 05:39:38;;;;;;;;;;;5.80;99.90;;;;;;5020056;28;19921;-77
2022/03/24 05:42:04;;;;;;;;;;;5.70;99.90;;;;;;5036169;28;19921;-76
2022/03/24 05:44:30;;;;;;;;;;;5.60;99.90;;;;;;5019866;28;20316;-76
2022/03/24 05:46:56;;;;;;;;;;;5.60;99.90;;;;;;5035731;28;19976;-77
2022/03/24 05:49:22;;;;;;;;;;;5.60;99.90;;;;;;5047839;28;20035;-78
2022/03/24 05:51:49;;;;;;;;;;;5.70;99.90;;;;;;5019704;28;19935;-76
2022/03/24 05:54:16;;;;;;;;;;;5.70;99.90;;;;;;5036296;28;19927;-76
2022/03/24 05:56:42;;;;;;;;;;;5.70;99.90;;;;;;5051315;28;20381;-77
2022/03/24 05:59:08;;;;;;;;;;;5.70;99.90;;;;;;5035772;28;19927;-76
2022/03/24 06:01:34;;;;;;;;;;;5.70;99.90;;;;;;5032246;28;19921;-76
2022/03/24 06:04:00;;;;;;;;;;;5.70;99.90;;;;;;5020311;28;19921;-76
2022/03/24 06:06:26;;;;;;;;;;;5.70;99.90;;;;;;5019315;28;19921;-76
2022/03/24 06:08:57;;;;;;;;;;;5.70;99.90;;;;;;5019262;28;19976;-77
2022/03/24 06:11:24;;;;;;;;;;;5.70;99.90;;;;;;5035637;28;19970;-76
2022/03/24 06:13:50;;;;;;;;;;;5.70;99.90;;;;;;5053113;28;19920;-76
2022/03/24 06:16:15;;;;;;;;;;;5.70;99.90;;;;;;5026681;28;20016;-76
2022/03/24 06:18:41;;;;;;;;;;;5.60;99.90;;;;;;5041961;28;19920;-76
2022/03/24 06:21:07;;;;;;;;;;;5.70;99.90;;;;;;5010494;28;20015;-77
2022/03/24 06:23:32;;;;;;;;;;;5.70;99.90;;;;;;5034401;28;19921;-76
2022/03/24 06:25:58;;;;;;;;;;;5.80;99.90;;;;;;5034816;28;19925;-77
2022/03/24 06:28:24;;;;;;;;;;;5.90;99.90;;;;;;5050946;28;20011;-76
2022/03/24 06:30:50;;;;;;;;;;;5.90;99.90;;;;;;5030180;28;19974;-76
2022/03/24 06:33:16;;;;;;;;;;;6.10;99.90;;;;;;5029583;28;19971;-77
2022/03/24 06:35:46;;;;;;;;;;;6.20;99.90;;;;;;5013026;28;19979;-77
2022/03/24 06:38:12;;;;;;;;;;;6.30;99.90;;;;;;5012460;28;19921;-76
2022/03/24 06:40:38;;;;;;;;;;;6.60;99.90;;;;;;5023644;28;19956;-77
2022/03/24 06:43:05;;;;;;;;;;;6.50;99.90;;;;;;5032940;28;19968;-76
2022/03/24 06:45:30;;;;;;;;;;;6.60;99.90;;;;;;5041777;28;19967;-76
2022/03/24 06:47:56;;;;;;;;;;;6.80;99.90;;;;;;5032298;28;20300;-77
2022/03/24 06:50:22;;;;;;;;;;;6.80;99.90;;;;;;5041579;28;19925;-76
2022/03/24 06:52:47;;;;;;;;;;;7.00;99.90;;;;;;5013877;28;20342;-77
2022/03/24 06:55:13;;;;;;;;;;;7.00;99.90;;;;;;5034026;28;20427;-76
2022/03/24 06:57:39;;;;;;;;;;;7.10;99.90;;;;;;5016974;28;19928;-77
2022/03/24 07:00:05;;;;;;;;;;;7.20;99.90;;;;;;5051600;28;19952;-77
2022/03/24 07:02:31;;;;;;;;;;;7.30;99.90;;;;;;5041689;28;19920;-78
2022/03/24 07:04:57;;;;;;;;;;;7.40;99.90;;;;;;5055849;28;19935;-76
2022/03/24 07:07:22;;;;;;;;;;;7.50;99.90;;;;;;5022598;28;19925;-78
2022/03/24 07:09:48;;;;;;;;;;;7.60;99.90;;;;;;5001779;28;19928;-78
2022/03/24 07:12:17;;;;;;;;;;;7.70;99.90;;;;;;5018787;28;19921;-78
2022/03/24 07:14:42;;;;;;;;;;;7.70;99.90;;;;;;5025603;28;19924;-78
2022/03/24 07:17:08;;;;;;;;;;;7.80;99.90;;;;;;5021696;28;19927;-80
2022/03/24 07:19:33;;;;;;;;;;;7.90;99.90;;;;;;5048957;28;20431;-77
2022/03/24 07:21:59;;;;;;;;;;;7.90;99.90;;;;;;5022069;28;19928;-77
2022/03/24 07:24:24;;;;;;;;;;;8.00;99.90;;;;;;5041931;28;19921;-78
2022/03/24 07:26:50;;;;;;;;;;;8.10;99.90;;;;;;5038664;28;19921;-77
2022/03/24 07:29:16;;;;;;;;;;;8.20;99.90;;;;;;5038545;28;20284;-78
2022/03/24 07:31:41;;;;;;;;;;;8.30;99.90;;;;;;5056740;28;19924;-77
2022/03/24 07:34:07;;;;;;;;;;;8.30;99.90;;;;;;5056270;28;20016;-78
2022/03/24 07:36:32;;;;;;;;;;;8.40;99.90;;;;;;5038737;28;19925;-79
2022/03/24 07:38:58;;;;;;;;;;;8.50;99.90;;;;;;5022248;28;19928;-77
2022/03/24 07:41:24;;;;;;;;;;;8.60;99.90;;;;;;5022465;28;20281;-77
2022/03/24 07:43:50;;;;;;;;;;;8.60;99.90;;;;;;5040483;28;19921;-77
2022/03/24 07:46:16;;;;;;;;;;;8.70;99.90;;;;;;5056258;28;19975;-80
2022/03/24 07:48:46;;;;;;;;;;;8.80;99.90;;;;;;5055396;28;20403;-78
2022/03/24 07:51:12;;;;;;;;;;;8.90;99.90;;;;;;5056097;28;20017;-77
2022/03/24 07:53:49;;;;;;;;;;;9.00;99.90;;;;;;5038910;28;19921;-76
2022/03/24 07:56:16;;;;;;;;;;;9.10;99.90;;;;;;5022255;28;20015;-86
2022/03/24 07:58:42;;;;;;;;;;;9.20;99.90;;;;;;5005746;28;20359;-77
2022/03/24 08:01:07;;;;;;;;;;;9.30;99.90;;;;;;5038102;28;19925;-77
2022/03/24 08:03:34;;;;;;;;;;;9.40;99.90;;;;;;5038142;28;20320;-77
2022/03/24 08:06:01;;;;;;;;;;;9.50;99.90;;;;;;5037463;28;19921;-77
2022/03/24 08:08:26;;;;;;;;;;;9.60;99.90;;;;;;5037943;28;19931;-77
2022/03/24 08:10:53;;;;;;;;;;;9.60;99.90;;;;;;5037785;28;19924;-77
2022/03/24 08:13:19;;;;;;;;;;;9.70;99.90;;;;;;5021618;28;19921;-77
2022/03/24 08:15:45;;;;;;;;;;;9.80;99.90;;;;;;5037384;28;19924;-77
2022/03/24 08:18:12;;;;;;;;;;;9.90;99.90;;;;;;5037254;28;20336;-77
2022/03/24 08:20:38;;;;;;;;;;;10.00;99.90;;;;;;5020930;28;19928;-77
2022/03/24 08:23:05;;;;;;;;;;;10.00;99.90;;;;;;5037422;28;19921;-76
2022/03/24 08:25:31;;;;;;;;;;;10.20;99.90;;;;;;5037559;28;19956;-77
2022/03/24 08:27:58;;;;;;;;;;;10.30;99.90;;;;;;5037136;28;19928;-77
2022/03/24 08:30:24;;;;;;;;;;;10.40;99.90;;;;;;5037319;28;19921;-77
2022/03/24 08:32:50;;;;;;;;;;;10.50;99.90;;;;;;5037818;28;19924;-77
2022/03/24 08:35:15;;;;;;;;;;;10.60;99.90;;;;;;5037549;28;20308;-77
2022/03/24 08:37:41;;;;;;;;;;;10.70;99.90;;;;;;5021020;28;19921;-77
2022/03/24 08:40:07;;;;;;;;;;;10.80;99.90;;;;;;5055060;28;20274;-77
2022/03/24 08:42:40;;;;;;;;;;;10.90;99.90;;;;;;5020709;28;20345;-77
2022/03/24 08:45:07;;;;;;;;;;;11.00;99.90;;;;;;5020918;28;20014;-77
2022/03/24 08:47:33;;;;;;;;;;;11.00;99.90;;;;;;5037426;28;19921;-77
2022/03/24 08:49:58;;;;;;;;;;;11.10;99.90;;;;;;5054500;28;19920;-77
2022/03/24 08:52:25;;;;;;;;;;;11.20;99.90;;;;;;5054707;28;19928;-77
2022/03/24 08:54:50;;;;;;;;;;;11.30;99.90;;;;;;5037813;28;19935;-75
2022/03/24 08:57:16;;;;;;;;;;;11.40;99.90;;;;;;5054482;28;20010;-79
2022/03/24 08:59:42;;;;;;;;;;;11.50;99.90;;;;;;5042183;28;19924;-77
2022/03/24 09:02:08;;;;;;;;;;;11.60;99.90;;;;;;5036117;28;20007;-77
2022/03/24 09:04:33;;;;;;;;;;;11.60;99.90;;;;;;5036823;28;19970;-78
2022/03/24 09:07:00;;;;;;;;;;;11.70;99.90;;;;;;5036283;28;19931;-78
2022/03/24 09:09:25;;;;;;;;;;;11.70;99.90;;;;;;5020045;28;20607;-79
2022/03/24 09:11:51;;;;;;;;;;;11.90;99.90;;;;;;5020065;28;19924;-79
2022/03/24 09:14:17;;;;;;;;;;;11.90;99.90;;;;;;5036200;28;20280;-81
2022/03/24 09:16:43;;;;;;;;;;;11.90;99.90;;;;;;5019698;28;19973;-82
2022/03/24 09:19:10;;;;;;;;;;;11.90;99.90;;;;;;5035675;28;19921;-81
2022/03/24 09:21:35;;;;;;;;;;;12.00;99.90;;;;;;5019878;28;20325;-81
2022/03/24 09:24:01;;;;;;;;;;;11.90;99.90;;;;;;5019028;28;20046;-79
2022/03/24 09:26:27;;;;;;;;;;;12.00;99.90;;;;;;5035604;28;19931;-80
2022/03/24 09:28:52;;;;;;;;;;;12.00;99.90;;;;;;5034522;28;19935;-82
2022/03/24 09:31:19;;;;;;;;;;;12.20;99.90;;;;;;5015993;28;19928;-81
2022/03/24 09:33:44;;;;;;;;;;;12.20;99.90;;;;;;5013303;28;19948;-82
2022/03/24 09:36:11;;;;;;;;;;;12.30;99.90;;;;;;5017953;28;20369;-82
2022/03/24 09:38:37;;;;;;;;;;;12.30;99.90;;;;;;5014778;28;19935;-82
2022/03/24 09:41:05;;;;;;;;;;;12.40;99.90;;;;;;5009553;28;19921;-82
2022/03/24 09:43:32;;;;;;;;;;;12.30;99.90;;;;;;5000248;28;19925;-81
2022/03/24 09:45:58;;;;;;;;;;;12.30;99.90;;;;;;5035016;28;19929;-82
2022/03/24 09:48:23;;;;;;;;;;;12.40;99.90;;;;;;5051767;28;20356;-78
2022/03/24 09:50:49;;;;;;;;;;;12.60;99.90;;;;;;5031560;28;19947;-82
2022/03/24 09:53:16;;;;;;;;;;;12.60;99.90;;;;;;5031622;28;20387;-81
2022/03/24 09:55:41;;;;;;;;;;;12.60;99.90;;;;;;5015304;28;20660;-81
2022/03/24 09:58:07;;;;;;;;;;;12.70;99.90;;;;;;5014932;28;19968;-82
2022/03/24 10:00:33;;;;;;;;;;;12.80;99.90;;;;;;5034058;28;19959;-82
2022/03/24 10:03:14;;;;;;;;;;;12.90;99.90;;;;;;5018084;28;20280;-80
2022/03/24 10:05:53;;;;;;;;;;;12.90;99.90;;;;;;5018435;28;19928;-81
2022/03/24 10:08:18;;;;;;;;;;;12.90;99.90;;;;;;5034695;28;19975;-81
2022/03/24 10:10:44;;;;;;;;;;;13.00;99.90;;;;;;5034438;28;20000;-81
2022/03/24 10:13:10;;;;;;;;;;;13.00;99.90;;;;;;5034279;28;20310;-82
2022/03/24 10:15:37;;;;;;;;;;;13.10;99.90;;;;;;5034377;28;19928;-82
2022/03/24 10:18:03;;;;;;;;;;;13.20;99.90;;;;;;5034260;28;19932;-82
2022/03/24 10:20:29;;;;;;;;;;;13.20;99.90;;;;;;5033454;28;19925;-81
2022/03/24 10:22:59;;;;;;;;;;;13.20;99.90;;;;;;5034523;28;19924;-81
2022/03/24 10:25:46;;;;;;;;;;;13.20;99.90;;;;;;5029706;28;20289;-81
2022/03/24 10:28:19;;;;;;;;;;;13.20;99.90;;;;;;5006893;28;19925;-81
2022/03/24 10:30:47;;;;;;;;;;;13.20;99.90;;;;;;5017033;28;19921;-80
2022/03/24 10:33:25;;;;;;;;;;;13.30;99.90;;;;;;5025859;28;19924;-81
2022/03/24 10:36:03;;;;;;;;;;;13.30;99.90;;;;;;5033836;28;20023;-81
2022/03/24 10:38:32;;;;;;;;;;;13.40;99.90;;;;;;5017920;28;19927;-81
2022/03/24 10:41:10;;;;;;;;;;;13.60;99.90;;;;;;5018111;28;19921;-81
2022/03/24 10:43:36;;;;;;;;;;;13.60;99.90;;;;;;5015430;28;19921;-79
2022/03/24 10:46:11;;;;;;;;;;;13.80;99.90;;;;;;4997562;28;20219;-80
2022/03/24 10:48:36;;;;;;;;;;;13.80;97.60;;;;;;5019054;28;19947;-79
2022/03/24 10:51:03;;;;;;;;;;;13.80;98.80;;;;;;5016823;28;20004;-78
2022/03/24 10:53:37;;;;;;;;;;;14.00;99.90;;;;;;5018465;28;20019;-77
2022/03/24 10:56:27;;;;;;;;;;;14.10;99.90;;;;;;5011404;28;19927;-79
2022/03/24 10:58:54;;;;;;;;;;;14.30;99.90;;;;;;5025241;28;20442;-78
2022/03/24 11:01:21;;;;;;;;;;;14.40;99.30;;;;;;5025333;28;20292;-79
2022/03/24 11:03:47;;;;;;;;;;;14.50;99.70;;;;;;5011668;28;19991;-79
2022/03/24 11:06:20;;;;;;;;;;;14.60;99.00;;;;;;5023812;28;19920;-78
2022/03/24 11:08:53;;;;;;;;;;;14.80;99.50;;;;;;5046398;28;19925;-78
2022/03/24 11:11:19;;;;;;;;;;;14.90;99.40;;;;;;5026377;28;20328;-79
2022/03/24 11:13:45;;;;;;;;;;;15.00;99.50;;;;;;5029307;28;19920;-78
2022/03/24 11:16:14;;;;;;;;;;;15.10;99.10;;;;;;5016678;28;20258;-78
2022/03/24 11:18:40;;;;;;;;;;;15.20;99.70;;;;;;5028898;28;19920;-79
2022/03/24 11:21:13;;;;;;;;;;;15.20;99.00;;;;;;5011919;28;20361;-79
2022/03/24 11:23:41;;;;;;;;;;;15.30;99.30;;;;;;5012099;28;19921;-79
2022/03/24 11:26:08;;;;;;;;;;;15.30;98.50;;;;;;5026751;28;19978;-79
2022/03/24 11:28:35;;;;;;;;;;;15.40;98.50;;;;;;5032546;28;19928;-80
2022/03/24 11:31:08;;;;;;;;;;;15.40;96.50;;;;;;5017272;28;20311;-77
2022/03/24 11:33:36;;;;;;;;;;;15.40;94.80;;;;;;5034525;28;19921;-78
2022/03/24 11:36:02;;;;;;;;;;;15.50;96.20;;;;;;5051363;28;19921;-83
2022/03/24 11:38:28;;;;;;;;;;;15.80;96.40;;;;;;5033395;28;19928;-78
2022/03/24 11:41:00;;;;;;;;;;;16.00;94.60;;;;;;5014724;28;19975;-78
2022/03/24 11:43:26;;;;;;;;;;;16.20;93.70;;;;;;5034135;28;19921;-79
2022/03/24 11:45:54;;;;;;;;;;;16.40;94.90;;;;;;5033169;28;19955;-79
2022/03/24 11:48:34;;;;;;;;;;;16.50;95.10;;;;;;5011472;28;19970;-93
2022/03/24 11:51:19;;;;;;;;;;;16.70;94.50;;;;;;5029354;28;19925;-78
2022/03/24 11:53:45;;;;;;;;;;;17.00;93.90;;;;;;5018290;28;19921;-77
2022/03/24 11:56:12;;;;;;;;;;;17.10;93.80;;;;;;5018124;28;19971;-78
2022/03/24 11:58:44;;;;;;;;;;;17.30;94.80;;;;;;5001900;28;19928;-78
2022/03/24 12:01:25;;;;;;;;;;;17.60;93.70;;;;;;5018327;28;19932;-78
2022/03/24 12:03:53;;;;;;;;;;;17.80;92.40;;;;;;5018382;28;19984;-77
2022/03/24 12:06:19;;;;;;;;;;;17.80;90.70;;;;;;5018193;28;19974;-78
2022/03/24 12:08:51;;;;;;;;;;;17.90;90.70;;;;;;5018339;28;20379;-77
2022/03/24 12:11:32;;;;;;;;;;;17.90;91.10;;;;;;5018023;28;19974;-78
2022/03/24 12:13:58;;;;;;;;;;;18.20;90.20;;;;;;5018148;28;19925;-78
2022/03/24 12:16:25;;;;;;;;;;;18.30;89.40;;;;;;5035431;28;19921;-78
2022/03/24 12:18:52;;;;;;;;;;;18.40;89.40;;;;;;5018100;28;19921;-78
2022/03/24 12:21:22;;;;;;;;;;;18.40;86.40;;;;;;5017476;28;19975;-78
2022/03/24 12:24:06;;;;;;;;;;;18.20;86.10;;;;;;5017847;28;20021;-78
2022/03/24 12:26:52;;;;;;;;;;;17.90;85.80;;;;;;5017537;28;20035;-78
2022/03/24 12:29:24;;;;;;;;;;;17.90;86.50;;;;;;5034309;28;19928;-78
2022/03/24 12:31:56;;;;;;;;;;;18.00;85.40;;;;;;5017824;28;20282;-78
2022/03/24 12:34:22;;;;;;;;;;;17.90;84.60;;;;;;5017573;28;19921;-78
2022/03/24 12:36:47;;;;;;;;;;;17.80;85.20;;;;;;5035240;28;19932;-78
2022/03/24 12:39:29;;;;;;;;;;;17.80;85.90;;;;;;5001353;28;19921;-78
2022/03/24 12:42:03;;;;;;;;;;;17.90;88.10;;;;;;5017633;28;19921;-78
2022/03/24 12:44:47;;;;;;;;;;;17.60;86.00;;;;;;5017473;28;19932;-78
2022/03/24 12:47:28;;;;;;;;;;;17.40;87.60;;;;;;5017429;28;19947;-78
2022/03/24 12:49:55;;;;;;;;;;;17.20;86.30;;;;;;5017716;28;19921;-78
2022/03/24 12:52:21;;;;;;;;;;;17.40;88.90;;;;;;5017147;28;19921;-78
2022/03/24 12:54:51;;;;;;;;;;;17.40;86.30;;;;;;5017377;28;20027;-80
2022/03/24 12:57:23;;;;;;;;;;;17.40;88.50;;;;;;5034646;28;19929;-78
2022/03/24 12:59:49;;;;;;;;;;;17.50;87.90;;;;;;5000248;28;19924;-78
2022/03/24 13:02:15;;;;;;;;;;;17.30;87.40;;;;;;5016973;28;20008;-78
2022/03/24 13:04:41;;;;;;;;;;;17.10;89.20;;;;;;5034883;28;20029;-78
2022/03/24 13:07:07;;;;;;;;;;;17.00;90.30;;;;;;5017319;28;19929;-78
2022/03/24 13:09:32;;;;;;;;;;;17.10;90.60;;;;;;5016864;28;19924;-78
2022/03/24 13:12:05;;;;;;;;;;;17.20;90.90;;;;;;5017262;28;20034;-78
2022/03/24 13:14:31;;;;;;;;;;;17.10;91.60;;;;;;5017016;28;20019;-78
2022/03/24 13:17:01;;;;;;;;;;;17.30;91.70;;;;;;5034433;28;19929;-78
2022/03/24 13:19:27;;;;;;;;;;;17.40;91.70;;;;;;5016487;28;19968;-78
2022/03/24 13:21:52;;;;;;;;;;;17.70;90.50;;;;;;5017139;28;19925;-78
2022/03/24 13:24:18;;;;;;;;;;;17.90;90.20;;;;;;5033860;28;19921;-77
2022/03/24 13:26:55;;;;;;;;;;;17.80;90.20;;;;;;5016872;28;19927;-77
2022/03/24 13:29:21;;;;;;;;;;;17.70;90.20;;;;;;5016642;28;19971;-78
2022/03/24 13:31:47;;;;;;;;;;;17.40;88.50;;;;;;5016865;28;19979;-78
2022/03/24 13:34:13;;;;;;;;;;;17.00;89.10;;;;;;5016709;28;19971;-78
2022/03/24 13:36:39;;;;;;;;;;;17.00;90.20;;;;;;5000106;28;20278;-77
2022/03/24 13:39:04;;;;;;;;;;;17.20;90.40;;;;;;5000215;28;19928;-78
2022/03/24 13:41:30;;;;;;;;;;;17.50;91.00;;;;;;5016299;28;19943;-77
2022/03/24 13:43:57;;;;;;;;;;;17.60;90.30;;;;;;5016145;28;19928;-78
2022/03/24 13:46:23;;;;;;;;;;;17.70;90.30;;;;;;5033758;28;19921;-78
2022/03/24 13:48:49;;;;;;;;;;;17.90;90.50;;;;;;5034275;28;19928;-77
2022/03/24 13:51:19;;;;;;;;;;;18.30;89.50;;;;;;5000013;28;19928;-81
2022/03/24 13:53:44;;;;;;;;;;;18.30;87.30;;;;;;5032593;28;19928;-77
2022/03/24 13:56:12;;;;;;;;;;;18.60;88.20;;;;;;5016163;28;20269;-77
2022/03/24 13:58:38;;;;;;;;;;;19.00;88.00;;;;;;5016114;28;19925;-77
2022/03/24 14:01:05;;;;;;;;;;;19.50;86.50;;;;;;5016321;28;19921;-77
2022/03/24 14:03:36;;;;;;;;;;;19.90;83.90;;;;;;5015765;28;20385;-78
2022/03/24 14:06:08;;;;;;;;;;;20.40;85.00;;;;;;5016286;28;19925;-79
2022/03/24 14:08:39;;;;;;;;;;;20.70;80.10;;;;;;5015626;28;20366;-78
2022/03/24 14:11:07;;;;;;;;;;;21.20;78.70;;;;;;5015689;28;20424;-78
2022/03/24 14:13:34;;;;;;;;;;;21.30;77.00;;;;;;5015934;28;20442;-78
2022/03/24 14:16:09;;;;;;;;;;;21.30;73.50;;;;;;5015942;28;20015;-77
2022/03/24 14:18:35;;;;;;;;;;;21.20;72.60;;;;;;5015455;28;20263;-78
2022/03/24 14:21:00;;;;;;;;;;;21.60;71.60;;;;;;5015459;28;20019;-78
2022/03/24 14:23:31;;;;;;;;;;;21.90;70.30;;;;;;5015597;28;19931;-78
2022/03/24 14:26:01;;;;;;;;;;;22.20;68.40;;;;;;4999148;28;19979;-78